Home > Products > Valid Products > MTR

000
SAUS43 KEAX 270553
MTRCDJ
METAR KCDJ 270552Z AUTO 03005KT 18/16 A2987 RMK AO1 SLP106 60102
T01780161 10183 20172 402560172 58020





000
SAUS43 KEAX 262353
MTRCDJ
METAR KCDJ 262352Z AUTO VRB06G18KT 18/17 A2994 RMK AO1 PRESRR SLP133
P0022 60033 T01830167 10250 20178 51064





000
SAUS43 KEAX 262054
MTRCDJ
METAR KCDJ 262052Z AUTO 13010KT 23/16 A2975 RMK AO1 PRESFR SLP064
T02280156 58037





000
SAUS43 KEAX 261854
MTRCDJ
METAR KCDJ 261852Z AUTO 15005KT 24/18 A2985 RMK AO1 SLP093 T02440178





000
SAUS43 KEAX 261753
MTRCDJ
METAR KCDJ 261752Z AUTO 07007KT 24/18 A2986 RMK AO1 SLP100 T02440183
10256 20189 58012





000
SAUS43 KEAX 261453
MTRCDJ
METAR KCDJ 261452Z AUTO 00000KT 26/17 A2990 RMK AO1 SLP113 T02560172
51009





000
SAUS43 KEAX 261153
MTRCDJ
METAR KCDJ 261152Z AUTO 00000KT 20/16 A2987 RMK AO1 SLP104 60002
70002 T02000156 10244 20200 50009





000
SAUS43 KEAX 260653
MTRCDJ
METAR KCDJ 260652Z AUTO 18005KT 24/20 A2987 RMK AO1 SLP102 T02440200





000
SAUS43 KEAX 260354
MTRCDJ
METAR KCDJ 260352Z AUTO 14004KT 24/19 A2989 RMK AO1 SLP110 T02440189





000
SAUS43 KEAX 260053
MTRCDJ
METAR KCDJ 260052Z AUTO 16003KT 27/18 A2988 RMK AO1 SLP106 T02720183





000
SAUS43 KEAX 252053
MTRCDJ
METAR KCDJ 252052Z AUTO 29/17 A2987 RMK AO1 SLP103 T02890172 56024





000
SAUS43 KEAX 251553
MTRCDJ
METAR KCDJ 251552Z AUTO 13004KT 23/18 A2994 RMK AO1 SLP129 T02280178





000
SAUS43 KEAX 251153
MTRCDJ
METAR KCDJ 251152Z AUTO 14007KT 19/17 A2985 RMK AO1 SLP096 T01890172
10206 20189 58019





000
SAUS43 KEAX 250653
MTRCDJ
METAR KCDJ 250652Z AUTO 13004KT 20/18 A2992 RMK AO1 SLP122 T02000183





000
SAUS43 KEAX 250553
MTRCDJ
METAR KCDJ 250552Z AUTO 00000KT 21/18 A2994 RMK AO1 SLP127 T02060183
10250 20206 402560167 51002





000
SAUS43 KEAX 250353
MTRCDJ
METAR KCDJ 250352Z AUTO 16006KT 22/18 A2994 RMK AO1 SLP127 T02170183





000
SAUS43 KEAX 250054
MTRCDJ
METAR KCDJ 250052Z AUTO 15004KT 24/19 A2993 RMK AO1 SLP126 T02440189





000
SAUS43 KEAX 242253
MTRCDJ
METAR KCDJ 242252Z AUTO 16005KT 25/19 A2992 RMK AO1 SLP124 T02500194





000
SAUS43 KEAX 242053
MTRCDJ
METAR KCDJ 242052Z AUTO 18006KT 24/19 A2991 RMK AO1 SLP120 T02440194
56011





000
SAUS43 KEAX 241453
MTRCDJ
METAR KCDJ 241452Z AUTO 17007KT 20/18 A2993 RMK AO1 SLP127 T02000178
58006





000
SAUS43 KEAX 241253
MTRCDJ
METAR KCDJ 241252Z AUTO 18006KT 19/17 A2996 RMK AO1 SLP134 T01890172





000
SAUS43 KEAX 241153
MTRCDJ
METAR KCDJ 241152Z AUTO 00000KT 18/17 A2994 RMK AO1 SLP130 T01780167
10194 20167 53007





000
SAUS43 KEAX 241054
MTRCDJ
METAR KCDJ 241052Z AUTO 00000KT 17/16 A2994 RMK AO1 SLP129 T01720161





000
SAUS43 KEAX 240953
MTRCDJ
METAR KCDJ 240952Z AUTO 00000KT 18/16 A2992 RMK AO1 SLP122 T01780161





    US Dept of Commerce
    National Oceanic and Atmospheric Administration
    National Weather Service
    1325 East West Highway
    Silver Spring, MD 20910
    Page Author: NWS Internet Services Team
Disclaimer
Information Quality
Credits
Glossary
Privacy Policy
Freedom of Information Act (FOIA)
About Us
Career Opportunities